createdAt,value
2023-03-31T00:00:58.299Z,5.77
2023-03-31T00:03:25.667Z,5.02
2023-03-31T00:05:59.637Z,5.74
2023-03-31T00:08:30.869Z,5.63
2023-03-31T00:11:02.405Z,5.34
2023-03-31T00:13:33.689Z,5.84
2023-03-31T00:16:09.441Z,5.80
2023-03-31T00:18:37.626Z,5.79
2023-03-31T00:21:29.748Z,5.84
2023-03-31T00:23:59.498Z,5.35
2023-03-31T00:26:28.185Z,5.77
2023-03-31T00:28:56.177Z,5.61
2023-03-31T00:31:24.089Z,4.81
2023-03-31T00:33:51.359Z,5.08
2023-03-31T00:36:21.801Z,5.38
2023-03-31T00:38:49.243Z,5.11
2023-03-31T00:41:16.375Z,5.27
2023-03-31T00:44:01.480Z,5.31
2023-03-31T00:46:31.367Z,5.29
2023-03-31T00:49:02.685Z,5.07
2023-03-31T00:51:34.200Z,5.13
2023-03-31T00:54:06.293Z,5.03
2023-03-31T00:56:39.994Z,4.23
2023-03-31T00:59:11.310Z,4.86
2023-03-31T01:01:43.119Z,5.05
2023-03-31T01:04:12.883Z,5.10
2023-03-31T01:07:12.645Z,4.99
2023-03-31T01:09:40.050Z,4.93
2023-03-31T01:12:09.904Z,4.52
2023-03-31T01:14:36.952Z,4.43
2023-03-31T01:17:05.435Z,4.82
2023-03-31T01:19:53.182Z,4.86
2023-03-31T01:22:50.899Z,4.88
2023-03-31T01:25:38.802Z,4.82
2023-03-31T01:28:32.225Z,4.82
2023-03-31T01:31:05.603Z,4.83
2023-03-31T01:34:11.571Z,4.83
2023-03-31T01:37:16.603Z,4.67
2023-03-31T01:40:10.059Z,4.70
2023-03-31T01:42:52.068Z,4.56
2023-03-31T01:45:40.711Z,4.69
2023-03-31T01:48:18.332Z,4.62
2023-03-31T01:50:50.127Z,4.58
2023-03-31T01:53:57.708Z,4.64
2023-03-31T01:56:37.574Z,4.61
2023-03-31T01:59:36.324Z,4.60
2023-03-31T02:02:11.417Z,4.58
2023-03-31T02:05:11.084Z,4.48
2023-03-31T02:07:51.224Z,4.50
2023-03-31T02:10:19.951Z,4.28
2023-03-31T02:12:48.884Z,4.45
2023-03-31T02:15:22.405Z,4.51
2023-03-31T02:17:55.647Z,4.26
2023-03-31T02:20:23.675Z,4.39
2023-03-31T02:22:54.867Z,4.41
2023-03-31T02:25:29.047Z,4.28
2023-03-31T02:28:02.624Z,3.97
2023-03-31T02:30:51.854Z,4.10
2023-03-31T02:33:19.434Z,3.94
2023-03-31T02:35:46.613Z,3.92
2023-03-31T02:38:14.231Z,4.00
2023-03-31T02:40:41.774Z,3.75
2023-03-31T02:43:08.874Z,3.92
2023-03-31T02:45:39.355Z,3.83
2023-03-31T02:48:10.091Z,3.54
2023-03-31T02:51:02.858Z,3.75
2023-03-31T02:53:48.921Z,3.87
2023-03-31T02:56:31.134Z,3.84
2023-03-31T02:59:25.926Z,3.87
2023-03-31T03:02:05.108Z,3.75
2023-03-31T03:05:01.550Z,3.82
2023-03-31T03:07:38.963Z,3.77
2023-03-31T03:10:16.252Z,3.72
2023-03-31T03:13:17.551Z,3.95
2023-03-31T03:16:21.925Z,3.96
2023-03-31T03:19:00.172Z,4.00
2023-03-31T03:21:28.116Z,3.99
2023-03-31T03:23:55.499Z,4.00
2023-03-31T03:26:24.597Z,3.77
2023-03-31T03:28:51.978Z,3.90
2023-03-31T03:31:19.767Z,3.94
2023-03-31T03:33:47.001Z,4.12
2023-03-31T03:36:14.125Z,3.94
2023-03-31T03:38:41.327Z,4.02
2023-03-31T03:41:08.735Z,4.22
2023-03-31T03:43:36.024Z,3.89
2023-03-31T03:46:03.061Z,3.98
2023-03-31T03:48:30.247Z,3.86
2023-03-31T03:51:00.543Z,4.08
2023-03-31T03:53:27.693Z,4.21
2023-03-31T03:55:54.678Z,4.28
2023-03-31T03:58:21.643Z,3.84
2023-03-31T04:00:48.998Z,4.10
2023-03-31T04:03:16.690Z,4.15
2023-03-31T04:05:43.792Z,4.24
2023-03-31T04:08:10.975Z,4.26
2023-03-31T04:10:38.035Z,4.31
2023-03-31T04:13:04.959Z,4.31
2023-03-31T04:15:32.040Z,4.18
2023-03-31T04:17:59.004Z,4.39
2023-03-31T04:20:30.820Z,4.25
2023-03-31T04:22:58.031Z,4.34
2023-03-31T04:25:25.044Z,4.36
2023-03-31T04:27:55.454Z,4.39
2023-03-31T04:30:23.393Z,4.06
2023-03-31T04:32:55.778Z,4.41
2023-03-31T04:35:25.207Z,4.45
2023-03-31T04:37:59.257Z,4.52
2023-03-31T04:40:26.910Z,4.56
2023-03-31T04:42:53.944Z,4.55
2023-03-31T04:45:20.975Z,3.94
2023-03-31T04:47:47.930Z,4.49
2023-03-31T04:50:17.170Z,4.34
2023-03-31T04:52:44.921Z,4.47
2023-03-31T04:55:12.117Z,4.60
2023-03-31T04:57:39.135Z,4.11
2023-03-31T05:00:11.220Z,4.57
2023-03-31T05:02:38.293Z,4.82
2023-03-31T05:05:06.241Z,4.80
2023-03-31T05:07:33.272Z,4.72
2023-03-31T05:10:00.473Z,4.86
2023-03-31T05:12:27.601Z,4.91
2023-03-31T05:14:54.716Z,4.61
2023-03-31T05:17:22.420Z,4.92
2023-03-31T05:19:49.537Z,4.89
2023-03-31T05:22:20.657Z,4.70
2023-03-31T05:24:47.975Z,4.80
2023-03-31T05:27:16.219Z,4.90
2023-03-31T05:29:44.108Z,4.74
2023-03-31T05:32:11.161Z,4.73
2023-03-31T05:34:38.203Z,4.85
2023-03-31T05:37:05.556Z,4.77
2023-03-31T05:39:34.191Z,4.98
2023-03-31T05:42:01.217Z,4.73
2023-03-31T05:44:28.243Z,5.09
2023-03-31T05:46:55.352Z,4.84
2023-03-31T05:49:22.485Z,4.40
2023-03-31T05:51:49.506Z,5.27
2023-03-31T05:54:16.556Z,5.29
2023-03-31T05:56:43.624Z,5.14
2023-03-31T05:59:10.865Z,5.10
2023-03-31T06:01:38.025Z,5.31
2023-03-31T06:04:05.071Z,5.26
2023-03-31T06:06:34.757Z,5.42
2023-03-31T06:09:07.492Z,5.67
2023-03-31T06:11:34.750Z,5.58
2023-03-31T06:14:01.941Z,5.71
2023-03-31T06:16:29.595Z,5.47
2023-03-31T06:18:57.023Z,5.94
2023-03-31T06:21:24.079Z,5.64
2023-03-31T06:23:55.332Z,5.68
2023-03-31T06:26:22.991Z,6.01
2023-03-31T06:28:50.166Z,6.24
2023-03-31T06:31:19.940Z,6.36
2023-03-31T06:33:47.673Z,6.36
2023-03-31T06:36:17.395Z,6.36
2023-03-31T06:38:45.079Z,6.60
2023-03-31T06:41:14.696Z,6.31
2023-03-31T06:43:42.026Z,6.81
2023-03-31T06:46:09.516Z,6.44
2023-03-31T06:48:37.234Z,6.75
2023-03-31T06:51:06.310Z,7.02
2023-03-31T06:53:34.597Z,7.26
2023-03-31T06:56:01.729Z,7.21
2023-03-31T06:58:31.332Z,7.17
2023-03-31T07:00:59.266Z,7.50
2023-03-31T07:03:26.525Z,7.69
2023-03-31T07:05:55.509Z,7.69
2023-03-31T07:08:23.772Z,7.84
2023-03-31T07:11:00.213Z,7.93
2023-03-31T07:13:28.412Z,7.78
2023-03-31T07:15:56.532Z,8.12
2023-03-31T07:18:35.127Z,8.19
2023-03-31T07:21:05.768Z,8.35
2023-03-31T07:23:35.986Z,8.36
2023-03-31T07:26:03.524Z,8.38
2023-03-31T07:28:31.362Z,8.61
2023-03-31T07:30:58.521Z,8.79
2023-03-31T07:33:25.708Z,8.98
2023-03-31T07:36:07.811Z,9.13
2023-03-31T07:38:38.789Z,9.16
2023-03-31T07:41:09.691Z,9.40
2023-03-31T07:43:37.419Z,9.38
2023-03-31T07:46:05.930Z,9.67
2023-03-31T07:48:33.971Z,9.75
2023-03-31T07:51:01.122Z,9.46
2023-03-31T07:53:33.264Z,10.02
2023-03-31T07:56:00.456Z,10.07
2023-03-31T07:58:27.560Z,10.29
2023-03-31T08:00:54.592Z,10.44
2023-03-31T08:03:21.758Z,10.41
2023-03-31T08:05:52.574Z,10.40
2023-03-31T08:08:19.748Z,10.69
2023-03-31T08:10:47.711Z,10.91
2023-03-31T08:13:14.915Z,11.06
2023-03-31T08:15:41.959Z,10.99
2023-03-31T08:18:09.203Z,11.32
2023-03-31T08:20:36.763Z,11.20
2023-03-31T08:23:05.585Z,11.41
2023-03-31T08:25:32.616Z,11.42
2023-03-31T08:27:59.564Z,11.74
2023-03-31T08:30:26.634Z,11.75
2023-03-31T08:32:53.657Z,11.84
2023-03-31T08:35:20.847Z,11.94
2023-03-31T08:37:47.983Z,11.83
2023-03-31T08:40:20.975Z,12.00
2023-03-31T08:42:53.986Z,12.21
2023-03-31T08:45:26.503Z,12.09
2023-03-31T08:48:04.583Z,12.54
2023-03-31T08:50:35.802Z,12.40
2023-03-31T08:53:12.714Z,12.53
2023-03-31T08:55:52.198Z,12.70
2023-03-31T08:58:28.095Z,12.96
2023-03-31T09:01:17.173Z,12.96
2023-03-31T09:03:50.849Z,12.98
2023-03-31T09:06:34.993Z,13.00
2023-03-31T09:09:03.810Z,12.81
2023-03-31T09:11:40.579Z,13.25
2023-03-31T09:14:38.320Z,13.15
2023-03-31T09:17:17.433Z,13.31
2023-03-31T09:20:05.428Z,12.96
2023-03-31T09:22:37.116Z,13.40
2023-03-31T09:25:07.783Z,13.42
2023-03-31T09:27:37.615Z,13.35
2023-03-31T09:30:10.836Z,13.42
2023-03-31T09:32:39.687Z,13.41
2023-03-31T09:35:22.328Z,13.52
2023-03-31T09:37:50.498Z,13.64
2023-03-31T09:40:21.120Z,13.63
2023-03-31T09:42:54.662Z,13.61
2023-03-31T09:45:21.866Z,13.75
2023-03-31T09:47:55.141Z,13.77
2023-03-31T09:50:25.325Z,13.51
2023-03-31T09:52:56.663Z,13.88
2023-03-31T09:56:01.703Z,13.83
2023-03-31T09:58:28.824Z,13.88
2023-03-31T10:01:02.828Z,14.12
2023-03-31T10:03:36.816Z,14.06
2023-03-31T10:06:12.036Z,14.12
2023-03-31T10:08:40.496Z,14.33
2023-03-31T10:11:11.583Z,14.16
2023-03-31T10:13:53.311Z,14.44
2023-03-31T10:16:33.405Z,14.52
2023-03-31T10:19:34.588Z,14.54
2023-03-31T10:22:07.414Z,14.46
2023-03-31T10:24:45.622Z,14.52
2023-03-31T10:27:19.879Z,14.79
2023-03-31T10:29:47.618Z,14.82
2023-03-31T10:32:23.263Z,14.83
2023-03-31T10:34:50.803Z,14.62
2023-03-31T10:37:22.664Z,14.48
2023-03-31T10:39:59.212Z,14.59
2023-03-31T10:42:27.931Z,14.19
2023-03-31T10:45:11.372Z,14.39
2023-03-31T10:47:40.018Z,14.45
2023-03-31T10:50:17.089Z,14.29
2023-03-31T10:52:47.599Z,14.29
2023-03-31T10:55:30.559Z,14.26
2023-03-31T10:58:21.212Z,14.53
2023-03-31T11:01:14.707Z,14.49
2023-03-31T11:03:57.331Z,14.61
2023-03-31T11:06:44.974Z,14.46
2023-03-31T11:09:37.174Z,14.78
2023-03-31T11:12:24.791Z,14.67
2023-03-31T11:14:59.386Z,14.92
2023-03-31T11:17:32.078Z,15.02
2023-03-31T11:20:15.089Z,15.06
2023-03-31T11:22:59.221Z,15.11
2023-03-31T11:25:32.042Z,14.99
2023-03-31T11:28:34.496Z,15.15
2023-03-31T11:31:22.391Z,15.24
2023-03-31T11:34:08.216Z,15.26
2023-03-31T11:36:38.040Z,15.32
2023-03-31T11:39:40.457Z,15.22
2023-03-31T11:42:16.103Z,15.25
2023-03-31T11:44:53.131Z,15.36
2023-03-31T11:47:24.685Z,14.95
2023-03-31T11:49:53.442Z,14.97
2023-03-31T11:52:43.777Z,14.64
2023-03-31T11:55:23.011Z,14.72
2023-03-31T11:58:02.839Z,14.51
2023-03-31T12:00:38.960Z,14.42
2023-03-31T12:03:23.410Z,14.17
2023-03-31T12:05:59.911Z,14.16
2023-03-31T12:08:31.218Z,14.30
2023-03-31T12:11:09.751Z,14.27
2023-03-31T12:13:41.514Z,14.26
2023-03-31T12:16:11.814Z,14.29
2023-03-31T12:19:03.385Z,14.21
2023-03-31T12:21:32.985Z,14.01
2023-03-31T12:24:00.012Z,14.21
2023-03-31T12:26:43.026Z,14.11
2023-03-31T12:29:47.202Z,14.10
2023-03-31T12:32:21.641Z,14.08
2023-03-31T12:34:57.137Z,13.93
2023-03-31T12:37:50.098Z,14.02
2023-03-31T12:40:52.920Z,13.98
2023-03-31T12:43:52.788Z,13.79
2023-03-31T12:46:47.571Z,14.07
2023-03-31T12:49:39.253Z,13.91
2023-03-31T12:52:12.976Z,13.91
2023-03-31T12:55:04.399Z,13.98
2023-03-31T12:57:31.703Z,14.08
2023-03-31T13:00:21.188Z,14.10
2023-03-31T13:02:49.641Z,14.24
2023-03-31T13:05:38.724Z,14.22
2023-03-31T13:08:08.572Z,14.06
2023-03-31T13:11:11.176Z,14.32
2023-03-31T13:13:58.140Z,14.45
2023-03-31T13:16:31.846Z,14.50
2023-03-31T13:18:59.347Z,14.44
2023-03-31T13:21:26.898Z,14.52
2023-03-31T13:23:54.242Z,14.49
2023-03-31T13:26:41.862Z,14.55
2023-03-31T13:29:14.926Z,14.53
2023-03-31T13:32:04.040Z,14.69
2023-03-31T13:34:35.249Z,14.66
2023-03-31T13:37:45.591Z,14.73
2023-03-31T13:40:40.132Z,14.68
2023-03-31T13:43:28.335Z,14.71
2023-03-31T13:45:58.066Z,14.67
2023-03-31T13:48:36.520Z,14.73
2023-03-31T13:51:26.947Z,14.84
2023-03-31T13:54:12.585Z,14.98
2023-03-31T13:56:39.558Z,14.96
2023-03-31T13:59:15.200Z,14.71
2023-03-31T14:02:24.341Z,15.14
2023-03-31T14:05:00.143Z,15.24
2023-03-31T14:07:44.496Z,15.32
2023-03-31T14:10:39.382Z,15.29
2023-03-31T14:13:10.881Z,15.31
2023-03-31T14:15:42.428Z,15.33
2023-03-31T14:18:15.908Z,15.37
2023-03-31T14:21:13.780Z,15.60
2023-03-31T14:24:13.431Z,15.60
2023-03-31T14:26:52.713Z,15.60
2023-03-31T14:29:28.418Z,15.58
2023-03-31T14:32:32.112Z,15.69
2023-03-31T14:35:29.144Z,15.82
2023-03-31T14:37:57.610Z,15.78
2023-03-31T14:40:25.542Z,15.85
2023-03-31T14:42:52.768Z,15.79
2023-03-31T14:45:25.680Z,15.79
2023-03-31T14:47:56.326Z,16.05
2023-03-31T14:50:30.019Z,15.48
2023-03-31T14:52:57.492Z,16.19
2023-03-31T14:55:35.668Z,15.95
2023-03-31T14:58:22.480Z,16.28
2023-03-31T15:00:49.743Z,16.32
2023-03-31T15:03:17.924Z,16.38
2023-03-31T15:05:48.839Z,16.24
2023-03-31T15:08:22.940Z,16.43
2023-03-31T15:10:58.896Z,16.32
2023-03-31T15:13:36.935Z,16.29
2023-03-31T15:16:20.432Z,16.23
2023-03-31T15:18:48.133Z,16.21
2023-03-31T15:21:27.461Z,16.11
2023-03-31T15:23:58.388Z,16.09
2023-03-31T15:26:51.738Z,16.07
2023-03-31T15:29:44.733Z,16.05
2023-03-31T15:32:21.172Z,16.04
2023-03-31T15:34:50.782Z,15.62
2023-03-31T15:37:27.885Z,15.81
2023-03-31T15:40:00.644Z,15.66
2023-03-31T15:42:29.006Z,15.66
2023-03-31T15:45:14.239Z,15.47
2023-03-31T15:47:48.821Z,15.49
2023-03-31T15:50:16.386Z,15.34
2023-03-31T15:52:53.294Z,15.16
2023-03-31T15:55:26.871Z,15.11
2023-03-31T15:57:56.057Z,14.88
2023-03-31T16:00:32.312Z,14.95
2023-03-31T16:03:06.203Z,14.92
2023-03-31T16:05:53.605Z,14.87
2023-03-31T16:08:50.974Z,14.76
2023-03-31T16:11:23.543Z,14.63
2023-03-31T16:13:54.288Z,14.43
2023-03-31T16:16:23.921Z,14.62
2023-03-31T16:18:55.552Z,14.38
2023-03-31T16:21:26.705Z,14.36
2023-03-31T16:23:57.227Z,14.23
2023-03-31T16:26:27.995Z,14.14
2023-03-31T16:28:57.707Z,13.97
2023-03-31T16:31:36.921Z,13.73
2023-03-31T16:34:09.199Z,13.56
2023-03-31T16:36:38.082Z,13.45
2023-03-31T16:39:06.806Z,13.60
2023-03-31T16:41:35.990Z,13.52
2023-03-31T16:44:03.516Z,13.50
2023-03-31T16:46:30.581Z,13.55
2023-03-31T16:48:57.753Z,13.49
2023-03-31T16:51:24.812Z,13.39
2023-03-31T16:53:51.806Z,13.22
2023-03-31T16:56:19.380Z,12.94
2023-03-31T16:58:46.611Z,12.77
2023-03-31T17:01:13.732Z,12.74
2023-03-31T17:03:42.292Z,12.00
2023-03-31T17:06:12.524Z,12.60
2023-03-31T17:08:40.447Z,12.58
2023-03-31T17:11:11.808Z,12.44
2023-03-31T17:13:41.769Z,12.30
2023-03-31T17:16:19.293Z,12.25
2023-03-31T17:18:57.487Z,12.27
2023-03-31T17:21:24.882Z,12.15
2023-03-31T17:23:51.939Z,12.10
2023-03-31T17:26:19.315Z,11.88
2023-03-31T17:28:46.639Z,12.06
2023-03-31T17:31:15.830Z,11.71
2023-03-31T17:33:43.808Z,11.81
2023-03-31T17:36:11.648Z,12.06
2023-03-31T17:38:40.026Z,11.63
2023-03-31T17:41:10.061Z,11.67
2023-03-31T17:43:38.340Z,11.80
2023-03-31T17:46:13.631Z,11.67
2023-03-31T17:48:41.394Z,11.28
2023-03-31T17:51:12.140Z,11.45
2023-03-31T17:53:40.110Z,11.40
2023-03-31T17:56:07.014Z,11.35
2023-03-31T17:58:34.056Z,11.22
2023-03-31T18:01:01.106Z,11.20
2023-03-31T18:03:29.004Z,11.00
2023-03-31T18:05:56.030Z,10.72
2023-03-31T18:08:23.297Z,11.07
2023-03-31T18:10:50.736Z,11.19
2023-03-31T18:13:17.891Z,11.12
2023-03-31T18:15:54.175Z,10.99
2023-03-31T18:18:23.354Z,10.94
2023-03-31T18:20:50.536Z,10.87
2023-03-31T18:23:17.711Z,10.95
2023-03-31T18:25:48.232Z,10.76
2023-03-31T18:28:17.089Z,10.86
2023-03-31T18:30:44.394Z,10.95
2023-03-31T18:33:13.001Z,10.75
2023-03-31T18:35:40.478Z,10.80
2023-03-31T18:38:07.880Z,10.90
2023-03-31T18:40:34.840Z,10.81
2023-03-31T18:43:02.898Z,10.77
2023-03-31T18:45:30.949Z,10.55
2023-03-31T18:47:58.734Z,10.80
2023-03-31T18:50:26.169Z,10.53
2023-03-31T18:52:54.854Z,10.53
2023-03-31T18:55:22.713Z,10.66
2023-03-31T18:57:50.027Z,10.47
2023-03-31T19:00:17.844Z,10.46
2023-03-31T19:02:45.220Z,10.57
2023-03-31T19:05:12.548Z,10.57
2023-03-31T19:07:40.798Z,10.39
2023-03-31T19:10:08.523Z,10.29
2023-03-31T19:12:35.592Z,10.01
2023-03-31T19:15:02.686Z,10.32
2023-03-31T19:17:29.981Z,10.14
2023-03-31T19:19:57.039Z,9.93
2023-03-31T19:22:25.720Z,10.25
2023-03-31T19:24:53.243Z,10.10
2023-03-31T19:27:20.362Z,10.19
2023-03-31T19:29:47.561Z,10.06
2023-03-31T19:32:14.578Z,10.16
2023-03-31T19:34:42.716Z,10.07
2023-03-31T19:37:10.066Z,10.12
2023-03-31T19:39:37.620Z,10.24
2023-03-31T19:42:04.765Z,9.82
2023-03-31T19:44:31.738Z,10.17
2023-03-31T19:46:58.986Z,9.73
2023-03-31T19:49:27.083Z,9.93
2023-03-31T19:51:56.007Z,9.96
2023-03-31T19:54:23.179Z,10.11
2023-03-31T19:56:50.285Z,10.03
2023-03-31T19:59:17.758Z,9.89
2023-03-31T20:01:44.874Z,10.07
2023-03-31T20:04:14.273Z,9.95
2023-03-31T20:06:41.834Z,9.86
2023-03-31T20:09:16.161Z,9.90
2023-03-31T20:11:43.592Z,9.91
2023-03-31T20:14:11.300Z,10.02
2023-03-31T20:16:38.427Z,10.19
2023-03-31T20:19:08.637Z,10.11
2023-03-31T20:21:37.909Z,10.02
2023-03-31T20:24:15.023Z,9.88
2023-03-31T20:26:42.211Z,10.01
2023-03-31T20:29:11.431Z,9.94
2023-03-31T20:31:40.239Z,9.75
2023-03-31T20:34:14.246Z,9.87
2023-03-31T20:36:43.067Z,10.00
2023-03-31T20:39:11.613Z,10.06
2023-03-31T20:41:38.782Z,9.84
2023-03-31T20:44:07.679Z,10.18
2023-03-31T20:46:34.864Z,9.67
2023-03-31T20:49:02.130Z,9.90
2023-03-31T20:51:31.639Z,9.85
2023-03-31T20:54:00.283Z,9.85
2023-03-31T20:56:33.973Z,10.01
2023-03-31T20:59:02.306Z,9.90
2023-03-31T21:01:32.831Z,9.91
2023-03-31T21:04:01.786Z,10.06
2023-03-31T21:06:32.635Z,10.10
2023-03-31T21:08:59.924Z,9.76
2023-03-31T21:11:32.268Z,10.04
2023-03-31T21:13:59.481Z,9.60
2023-03-31T21:16:27.120Z,9.95
2023-03-31T21:18:58.765Z,9.70
2023-03-31T21:21:27.280Z,9.87
2023-03-31T21:23:54.780Z,9.94
2023-03-31T21:26:22.357Z,9.76
2023-03-31T21:28:51.862Z,9.86
2023-03-31T21:31:19.387Z,9.76
2023-03-31T21:33:47.639Z,9.76
2023-03-31T21:36:17.990Z,9.81
2023-03-31T21:38:45.846Z,9.48
2023-03-31T21:41:15.506Z,9.54
2023-03-31T21:43:43.385Z,9.60
2023-03-31T21:46:17.135Z,9.60
2023-03-31T21:48:44.506Z,9.55
2023-03-31T21:51:12.057Z,9.51
2023-03-31T21:53:39.440Z,9.54
2023-03-31T21:56:06.642Z,9.47
2023-03-31T21:58:33.857Z,9.28
2023-03-31T22:01:04.105Z,9.48
2023-03-31T22:03:34.611Z,9.35
2023-03-31T22:06:03.674Z,9.29
2023-03-31T22:08:31.796Z,9.26
2023-03-31T22:11:00.540Z,9.33
2023-03-31T22:13:28.921Z,9.22
2023-03-31T22:15:57.108Z,9.23
2023-03-31T22:18:24.285Z,8.55
2023-03-31T22:20:51.752Z,9.18
2023-03-31T22:23:21.598Z,9.26
2023-03-31T22:25:49.204Z,9.22
2023-03-31T22:28:17.028Z,9.21
2023-03-31T22:30:44.318Z,9.32
2023-03-31T22:33:11.507Z,9.13
2023-03-31T22:35:38.724Z,9.02
2023-03-31T22:38:06.638Z,9.10
2023-03-31T22:40:35.380Z,9.16
2023-03-31T22:43:02.547Z,9.15
2023-03-31T22:45:29.882Z,8.97
2023-03-31T22:47:57.255Z,8.98
2023-03-31T22:50:24.868Z,9.21
2023-03-31T22:52:52.198Z,8.82
2023-03-31T22:55:19.641Z,8.76
2023-03-31T22:57:46.917Z,9.02
2023-03-31T23:00:14.316Z,8.92
2023-03-31T23:02:42.417Z,8.93
2023-03-31T23:05:14.707Z,8.78
2023-03-31T23:07:41.895Z,8.52
2023-03-31T23:10:09.501Z,8.52
2023-03-31T23:12:36.905Z,8.34
2023-03-31T23:15:04.218Z,8.68
2023-03-31T23:17:31.513Z,8.86
2023-03-31T23:19:58.643Z,8.88
2023-03-31T23:22:25.986Z,8.79
2023-03-31T23:24:53.219Z,8.37
2023-03-31T23:27:20.596Z,8.82
2023-03-31T23:29:47.728Z,8.67
2023-03-31T23:32:14.879Z,8.60
2023-03-31T23:34:42.539Z,8.90
2023-03-31T23:37:11.394Z,8.82
2023-03-31T23:39:39.096Z,8.87
2023-03-31T23:42:07.633Z,8.62
2023-03-31T23:44:37.210Z,8.74
2023-03-31T23:47:05.663Z,8.69
2023-03-31T23:49:32.796Z,8.69
2023-03-31T23:51:59.847Z,8.67
2023-03-31T23:54:27.351Z,8.77
2023-03-31T23:56:54.554Z,8.73
2023-03-31T23:59:21.712Z,8.74
